Time;durP1;ratioP1;P1;durP2;ratioP2;P2;SDS_P1;SDS_P2;PMS_P1;PMS_P2;Temp;Humidity;BMP_temperature;BMP_pressure;BME280_temperature;BME280_humidity;BME280_pressure;Samples;Min_cycle;Max_cycle;Signal;HPM_P1;HPM_P2
2022/09/12 00:01:05;;;;;;;;;15.75;14.75;;;;;19.57;58.26;101208.19;4999841;28;45673;-81
2022/09/12 00:03:30;;;;;;;;;15.00;14.50;;;;;19.47;57.94;101193.41;5000235;28;46144;-81
2022/09/12 00:05:56;;;;;;;;;14.25;13.25;;;;;19.46;58.41;101205.88;4999876;28;45467;-80
2022/09/12 00:08:21;;;;;;;;;19.75;17.50;;;;;19.37;58.61;101201.69;5000767;28;45325;-80
2022/09/12 00:10:47;;;;;;;;;14.25;14.00;;;;;19.39;57.91;101207.88;5000252;28;45299;-80
2022/09/12 00:13:12;;;;;;;;;13.25;13.25;;;;;19.33;58.43;101196.53;4999925;28;47211;-80
2022/09/12 00:15:40;;;;;;;;;11.75;11.75;;;;;19.34;58.51;101195.59;5016301;28;45450;-80
2022/09/12 00:18:08;;;;;;;;;14.00;11.50;;;;;19.32;58.84;101197.44;5021293;28;45217;-80
2022/09/12 00:20:33;;;;;;;;;17.50;16.50;;;;;19.27;58.58;101189.59;5019581;28;45422;-80
2022/09/12 00:22:59;;;;;;;;;13.25;12.00;;;;;19.21;58.96;101187.13;5021342;28;45309;-80
2022/09/12 00:25:24;;;;;;;;;17.25;15.25;;;;;19.24;59.01;101186.13;5021097;28;45446;-80
2022/09/12 00:27:50;;;;;;;;;13.50;12.50;;;;;19.17;59.20;101178.34;5022286;28;45379;-80
2022/09/12 00:30:15;;;;;;;;;14.75;14.25;;;;;19.16;58.98;101173.94;5022235;28;45367;-80
2022/09/12 00:32:40;;;;;;;;;15.00;14.75;;;;;19.13;59.47;101170.47;5020552;28;48414;-80
2022/09/12 00:35:06;;;;;;;;;18.25;16.00;;;;;19.08;59.24;101159.94;5021216;28;45489;-80
2022/09/12 00:37:33;;;;;;;;;15.00;14.00;;;;;19.14;59.71;101178.44;5021142;28;45244;-79
2022/09/12 00:39:58;;;;;;;;;17.75;15.25;;;;;19.08;59.11;101165.28;5021343;28;45284;-80
2022/09/12 00:42:24;;;;;;;;;16.75;16.00;;;;;19.06;59.38;101161.81;5023165;28;47058;-80
2022/09/12 00:44:51;;;;;;;;;14.50;13.75;;;;;19.07;59.75;101157.34;5024482;28;45439;-81
2022/09/12 00:47:31;;;;;;;;;12.50;12.50;;;;;19.06;59.41;101163.56;5021087;28;45273;-81
2022/09/12 00:50:00;;;;;;;;;14.50;14.50;;;;;19.06;59.68;101161.81;5020711;28;45186;-81
2022/09/12 00:52:32;;;;;;;;;12.25;11.50;;;;;19.00;59.75;101151.31;5020944;28;45201;-81
2022/09/12 00:55:03;;;;;;;;;13.25;13.25;;;;;19.00;59.93;101151.31;5022189;28;45353;-80
2022/09/12 00:57:35;;;;;;;;;17.50;16.00;;;;;18.97;59.77;101145.22;5023088;28;45414;-80
2022/09/12 01:00:15;;;;;;;;;12.25;12.25;;;;;18.98;60.38;101152.28;5022947;28;45500;-81
2022/09/12 01:03:10;;;;;;;;;15.75;13.75;;;;;18.92;60.01;101153.34;5023337;28;45526;-81
2022/09/12 01:05:43;;;;;;;;;14.00;14.00;;;;;18.85;60.20;101144.69;5022229;28;45440;-81
2022/09/12 01:08:09;;;;;;;;;18.25;17.00;;;;;18.84;59.67;101142.91;5018139;28;45345;-81
2022/09/12 01:10:36;;;;;;;;;19.75;18.50;;;;;18.89;60.17;101151.66;5003041;28;45378;-81
2022/09/12 01:13:07;;;;;;;;;16.50;15.25;;;;;18.88;59.95;101149.06;5009049;28;47131;-81
2022/09/12 01:15:35;;;;;;;;;17.00;16.00;;;;;18.83;60.39;101148.31;5022332;28;45437;-81
2022/09/12 01:18:10;;;;;;;;;16.75;15.50;;;;;18.81;60.12;101143.03;5022575;28;45339;-80
2022/09/12 01:20:44;;;;;;;;;14.25;14.25;;;;;18.79;60.42;101139.56;5022560;28;45379;-80
2022/09/12 01:23:40;;;;;;;;;14.25;14.25;;;;;18.74;60.36;101136.13;5022773;28;48273;-81
2022/09/12 01:26:27;;;;;;;;;15.25;14.00;;;;;18.72;60.45;101137.97;5022931;28;45344;-81
2022/09/12 01:29:35;;;;;;;;;14.50;13.50;;;;;18.65;60.76;101123.91;5018373;28;45451;-80
2022/09/12 01:32:23;;;;;;;;;16.50;15.00;;;;;18.69;60.79;101130.06;5002420;28;45752;-81
2022/09/12 01:35:05;;;;;;;;;14.25;14.25;;;;;18.65;60.89;101131.91;5002451;28;47756;-80
2022/09/12 01:37:40;;;;;;;;;15.50;15.50;;;;;18.65;60.80;101123.06;5011322;28;45429;-80
2022/09/12 01:40:22;;;;;;;;;19.00;16.75;;;;;18.59;61.18;101123.25;5022067;28;45225;-80
2022/09/12 01:43:02;;;;;;;;;15.75;13.75;;;;;18.61;61.03;101122.28;5022086;28;45441;-81
2022/09/12 01:45:34;;;;;;;;;16.75;14.75;;;;;18.57;60.96;101117.94;5010658;28;45804;-81
2022/09/12 01:48:23;;;;;;;;;15.50;15.50;;;;;18.59;60.97;101125.91;5023536;28;45229;-81
2022/09/12 01:51:01;;;;;;;;;16.75;12.50;;;;;18.57;61.14;101123.28;5022165;28;45497;-81
2022/09/12 01:53:31;;;;;;;;;17.50;15.00;;;;;18.47;61.54;101104.06;5004800;28;45424;-81
2022/09/12 01:56:07;;;;;;;;;15.00;15.00;;;;;18.55;61.42;101116.25;5021584;28;47176;-81
2022/09/12 01:58:44;;;;;;;;;11.50;11.50;;;;;18.48;61.18;101107.59;5023494;28;45497;-82
2022/09/12 02:01:16;;;;;;;;;16.00;14.25;;;;;18.53;61.55;101113.66;5020541;28;45469;-82
2022/09/12 02:03:55;;;;;;;;;16.50;15.25;;;;;18.51;61.24;101119.03;5013350;28;45483;-81
2022/09/12 02:06:36;;;;;;;;;14.50;14.50;;;;;18.44;61.46;101106.81;5018607;28;45352;-81
2022/09/12 02:09:22;;;;;;;;;19.75;16.25;;;;;18.36;61.58;101105.28;5002065;28;45405;-81
2022/09/12 02:11:52;;;;;;;;;16.00;16.00;;;;;18.35;61.84;101122.22;5012064;28;45332;-80
2022/09/12 02:14:26;;;;;;;;;15.00;13.75;;;;;18.32;62.15;101116.97;5023087;28;45554;-81
2022/09/12 02:17:01;;;;;;;;;15.00;13.50;;;;;18.23;61.73;101107.44;5023444;28;45407;-81
2022/09/12 02:19:32;;;;;;;;;15.75;15.25;;;;;18.18;61.90;101101.41;5021769;28;45331;-81
2022/09/12 02:22:01;;;;;;;;;16.00;14.50;;;;;18.19;61.86;101103.13;5022348;28;45463;-80
2022/09/12 02:24:38;;;;;;;;;18.25;16.25;;;;;18.18;61.92;101098.72;5022593;28;45445;-80
2022/09/12 02:27:27;;;;;;;;;18.00;18.00;;;;;18.23;61.61;101104.75;5008424;28;45673;-81
2022/09/12 02:29:53;;;;;;;;;20.00;17.75;;;;;18.18;62.29;101093.41;5002007;28;45423;-81
2022/09/12 02:32:36;;;;;;;;;21.00;18.75;;;;;18.20;61.99;101102.19;5001570;28;45384;-81
2022/09/12 02:35:12;;;;;;;;;17.50;17.25;;;;;18.13;62.19;101092.66;5001958;28;45356;-80
2022/09/12 02:37:51;;;;;;;;;17.50;16.00;;;;;18.18;62.15;101096.06;5001964;28;47008;-80
2022/09/12 02:40:17;;;;;;;;;19.00;17.75;;;;;18.15;61.87;101090.78;5002480;28;46111;-81
2022/09/12 02:42:43;;;;;;;;;15.50;13.00;;;;;18.13;61.86;101090.00;5004230;28;45266;-80
2022/09/12 02:45:09;;;;;;;;;19.75;17.25;;;;;18.10;62.25;101079.44;5002256;28;45530;-81
2022/09/12 02:47:41;;;;;;;;;20.25;18.75;;;;;18.08;62.43;101087.44;5013449;28;47265;-82
2022/09/12 02:50:07;;;;;;;;;17.50;17.00;;;;;17.98;62.69;101078.84;5022562;28;45413;-82
2022/09/12 02:52:34;;;;;;;;;20.25;20.25;;;;;17.94;62.24;101082.53;5024043;28;45317;-80
2022/09/12 02:55:01;;;;;;;;;24.00;24.00;;;;;17.92;63.16;101075.50;5016223;28;45207;-81
2022/09/12 02:57:27;;;;;;;;;16.25;15.50;;;;;17.91;62.84;101066.66;5023112;28;45462;-81
2022/09/12 02:59:56;;;;;;;;;22.00;21.25;;;;;17.89;62.71;101073.81;5022164;28;45414;-80
2022/09/12 03:02:40;;;;;;;;;20.25;20.00;;;;;17.89;63.06;101070.25;5021939;28;45423;-81
2022/09/12 03:05:27;;;;;;;;;22.25;20.75;;;;;17.87;62.90;101066.78;5021309;28;45826;-81
2022/09/12 03:08:02;;;;;;;;;20.75;17.25;;;;;17.86;63.23;101063.25;5023879;28;46353;-82
2022/09/12 03:10:36;;;;;;;;;20.00;18.00;;;;;17.79;63.42;101057.19;5024353;28;45288;-81
2022/09/12 03:13:11;;;;;;;;;22.50;21.25;;;;;17.80;63.41;101066.06;5023284;28;45316;-81
2022/09/12 03:16:01;;;;;;;;;24.25;22.00;;;;;17.77;63.31;101061.66;5024659;28;45276;-81
2022/09/12 03:18:36;;;;;;;;;20.50;19.25;;;;;17.79;63.56;101056.31;5023320;28;46225;-81
2022/09/12 03:21:16;;;;;;;;;22.00;21.00;;;;;17.78;63.34;101059.88;5003623;28;45592;-82
2022/09/12 03:23:48;;;;;;;;;17.25;17.00;;;;;17.79;63.46;101059.00;5002288;28;45341;-81
2022/09/12 03:26:27;;;;;;;;;19.75;18.00;;;;;17.72;63.58;101044.06;5011825;28;45372;-81
2022/09/12 03:28:55;;;;;;;;;19.00;18.00;;;;;17.76;63.72;101045.72;5023361;28;45272;-82
2022/09/12 03:31:21;;;;;;;;;17.75;17.00;;;;;17.68;64.04;101031.75;5024639;28;45374;-81
2022/09/12 03:33:46;;;;;;;;;15.75;14.50;;;;;17.72;63.58;101044.97;5007243;28;45493;-80
2022/09/12 03:36:17;;;;;;;;;23.25;21.00;;;;;17.72;63.75;101046.72;5002968;28;45439;-81
2022/09/12 03:38:42;;;;;;;;;22.75;21.00;;;;;17.67;63.62;101035.31;5004312;28;45417;-81
2022/09/12 03:41:08;;;;;;;;;20.25;15.25;;;;;17.66;63.97;101030.94;5004337;28;45281;-82
2022/09/12 03:43:33;;;;;;;;;20.25;20.00;;;;;17.62;63.92;101030.16;5002432;28;45337;-81
2022/09/12 03:45:58;;;;;;;;;20.50;18.50;;;;;17.60;63.69;101024.00;5004377;28;45186;-80
2022/09/12 03:48:24;;;;;;;;;20.00;18.00;;;;;17.64;63.76;101033.63;5022017;28;46049;-81
2022/09/12 03:50:49;;;;;;;;;13.50;13.50;;;;;17.58;63.97;101028.47;5023093;28;45912;-81
2022/09/12 03:53:15;;;;;;;;;19.00;18.50;;;;;17.55;64.08;101025.91;5022732;28;45298;-80
2022/09/12 03:55:40;;;;;;;;;21.50;17.25;;;;;17.54;64.13;101026.84;5024129;28;45217;-81
2022/09/12 03:58:06;;;;;;;;;16.75;16.25;;;;;17.58;64.32;101042.66;5022051;28;47741;-82
2022/09/12 04:00:32;;;;;;;;;19.75;18.25;;;;;17.50;64.22;101033.16;5021185;28;45185;-81
2022/09/12 04:02:57;;;;;;;;;20.00;19.00;;;;;17.54;64.29;101041.00;5006751;28;45404;-81
2022/09/12 04:05:24;;;;;;;;;19.50;19.00;;;;;17.52;64.31;101045.50;5002963;28;45312;-81
2022/09/12 04:07:50;;;;;;;;;18.50;17.00;;;;;17.51;64.56;101051.75;5002356;28;45511;-81
2022/09/12 04:10:16;;;;;;;;;24.75;22.50;;;;;17.46;64.58;101042.16;5001081;28;45456;-81
2022/09/12 04:12:41;;;;;;;;;16.25;15.25;;;;;17.52;64.45;101049.97;5013155;28;45533;-82
2022/09/12 04:15:07;;;;;;;;;17.50;16.00;;;;;17.46;64.12;101034.16;5002446;28;45225;-82
2022/09/12 04:17:33;;;;;;;;;15.00;14.25;;;;;17.52;64.30;101049.97;5005613;28;45519;-81
2022/09/12 04:19:59;;;;;;;;;17.00;16.00;;;;;17.55;64.76;101056.06;5021395;28;45329;-81
2022/09/12 04:22:25;;;;;;;;;19.75;17.50;;;;;17.53;64.45;101051.69;5020608;28;45264;-81
2022/09/12 04:24:50;;;;;;;;;14.75;14.75;;;;;17.53;64.20;101057.03;5009940;28;45504;-81
2022/09/12 04:27:16;;;;;;;;;15.00;15.00;;;;;17.46;64.45;101043.03;4998905;28;46741;-82
2022/09/12 04:29:42;;;;;;;;;15.25;15.00;;;;;17.51;64.81;101049.09;5000178;28;45454;-81
2022/09/12 04:32:08;;;;;;;;;15.75;14.75;;;;;17.49;64.37;101045.59;4998931;28;45341;-81
2022/09/12 04:34:33;;;;;;;;;17.50;17.50;;;;;17.48;64.43;101041.19;5000544;28;45515;-81
2022/09/12 04:36:59;;;;;;;;;20.50;17.25;;;;;17.48;64.36;101045.63;5000069;28;46178;-81
2022/09/12 04:39:24;;;;;;;;;14.25;14.25;;;;;17.43;64.32;101045.78;5000288;28;45351;-81
2022/09/12 04:41:50;;;;;;;;;21.75;20.75;;;;;17.38;64.62;101042.34;5013446;28;45599;-81
2022/09/12 04:44:16;;;;;;;;;18.50;18.00;;;;;17.34;64.59;101030.91;4998587;28;45606;-81
2022/09/12 04:46:43;;;;;;;;;24.00;19.25;;;;;17.40;64.77;101046.72;5004006;28;45438;-81
2022/09/12 04:49:10;;;;;;;;;21.00;18.75;;;;;17.36;64.74;101033.53;5018553;28;45456;-81
2022/09/12 04:51:38;;;;;;;;;18.75;17.25;;;;;17.31;64.62;101028.31;5018274;28;45359;-81
2022/09/12 04:54:16;;;;;;;;;20.50;19.50;;;;;17.35;64.81;101035.31;5019479;28;45406;-81
2022/09/12 04:56:44;;;;;;;;;21.75;18.75;;;;;17.35;64.67;101031.78;5019205;28;45828;-81
2022/09/12 04:59:11;;;;;;;;;19.00;17.50;;;;;17.31;65.09;101025.66;5019728;28;45403;-81
2022/09/12 05:01:37;;;;;;;;;24.50;20.50;;;;;17.30;65.10;101017.75;4998461;28;45515;-81
2022/09/12 05:04:03;;;;;;;;;23.25;20.00;;;;;17.25;64.87;101015.19;5011799;28;45784;-82
2022/09/12 05:06:34;;;;;;;;;20.50;20.50;;;;;17.29;65.14;101016.84;5006381;28;46338;-82
2022/09/12 05:09:01;;;;;;;;;19.75;17.25;;;;;17.32;64.97;101018.53;5019435;28;45303;-82
2022/09/12 05:11:29;;;;;;;;;21.75;20.00;;;;;17.27;65.10;101005.38;5018343;28;45247;-82
2022/09/12 05:13:54;;;;;;;;;23.00;20.25;;;;;17.30;65.05;101023.06;5018968;28;45658;-82
2022/09/12 05:16:21;;;;;;;;;21.00;20.50;;;;;17.27;64.88;101024.03;5019382;28;46222;-82
2022/09/12 05:18:47;;;;;;;;;21.25;19.75;;;;;17.27;65.44;101021.34;5019275;28;45260;-81
2022/09/12 05:21:16;;;;;;;;;22.50;20.50;;;;;17.28;65.09;101025.75;5018014;28;45304;-82
2022/09/12 05:23:41;;;;;;;;;19.25;17.50;;;;;17.22;65.30;101015.28;5017459;28;45205;-82
2022/09/12 05:26:10;;;;;;;;;19.50;17.50;;;;;17.25;65.18;101022.31;5019804;28;45351;-81
2022/09/12 05:28:37;;;;;;;;;18.25;17.75;;;;;17.22;65.52;101028.59;5019014;28;45273;-81
2022/09/12 05:31:13;;;;;;;;;25.25;21.50;;;;;17.23;65.32;101032.13;5018292;28;45253;-82
2022/09/12 05:33:41;;;;;;;;;19.75;19.50;;;;;17.24;65.69;101033.84;5019058;28;45228;-82
2022/09/12 05:36:10;;;;;;;;;18.25;18.25;;;;;17.19;64.90;101015.38;5008621;28;46070;-81
2022/09/12 05:38:36;;;;;;;;;19.00;17.75;;;;;17.16;65.23;101013.66;4997748;28;45751;-82
2022/09/12 05:41:13;;;;;;;;;21.00;19.25;;;;;17.22;65.58;101012.63;5001322;28;45318;-82
2022/09/12 05:43:40;;;;;;;;;19.00;17.00;;;;;17.25;65.73;101019.66;5002327;28;45229;-82
2022/09/12 05:46:16;;;;;;;;;18.25;17.00;;;;;17.28;65.52;101024.88;5003501;28;46138;-82
2022/09/12 05:48:43;;;;;;;;;18.25;15.75;;;;;17.30;65.78;101031.03;5008326;28;45985;-81
2022/09/12 05:51:12;;;;;;;;;15.00;14.75;;;;;17.24;65.54;101020.53;5021272;28;45348;-82
2022/09/12 05:53:39;;;;;;;;;16.00;16.00;;;;;17.30;65.72;101031.03;5022341;28;45501;-81
2022/09/12 05:56:13;;;;;;;;;20.50;18.75;;;;;17.29;65.76;101024.81;5020901;28;47503;-82
2022/09/12 05:58:42;;;;;;;;;17.00;15.50;;;;;17.33;65.75;101022.97;5013159;28;45233;-82
2022/09/12 06:01:11;;;;;;;;;14.50;14.50;;;;;17.34;65.41;101014.06;5016967;28;45473;-82
2022/09/12 06:03:46;;;;;;;;;14.75;13.75;;;;;17.33;65.30;101018.53;5020812;28;46245;-82
2022/09/12 06:06:13;;;;;;;;;19.25;16.50;;;;;17.30;65.42;101012.41;5002926;28;46395;-82
2022/09/12 06:08:41;;;;;;;;;18.25;15.25;;;;;17.39;65.80;101033.44;5000952;28;45341;-82
2022/09/12 06:11:08;;;;;;;;;17.50;17.50;;;;;17.33;65.67;101020.31;5002050;28;45657;-82
2022/09/12 06:13:36;;;;;;;;;17.25;16.75;;;;;17.40;65.63;101030.75;5000567;28;46294;-82
2022/09/12 06:16:07;;;;;;;;;14.50;14.25;;;;;17.44;65.59;101041.31;5001608;28;46633;-82
2022/09/12 06:18:36;;;;;;;;;19.75;17.50;;;;;17.41;65.74;101034.28;5000167;28;45372;-81
2022/09/12 06:21:04;;;;;;;;;19.75;17.75;;;;;17.41;65.53;101031.63;5000441;28;45301;-81
2022/09/12 06:23:29;;;;;;;;;19.75;17.50;;;;;17.51;65.44;101049.09;5000468;28;45737;-81
2022/09/12 06:25:55;;;;;;;;;24.00;22.25;;;;;17.47;65.69;101034.09;5007360;28;45560;-81
2022/09/12 06:28:20;;;;;;;;;17.50;17.00;;;;;17.49;65.54;101034.94;5008162;28;45277;-82
2022/09/12 06:30:47;;;;;;;;;16.50;14.75;;;;;17.58;65.65;101047.97;5000498;28;45236;-82
2022/09/12 06:33:13;;;;;;;;;16.25;15.25;;;;;17.62;65.37;101048.78;5001997;28;45426;-82
2022/09/12 06:35:38;;;;;;;;;18.00;17.00;;;;;17.63;65.28;101038.09;4999936;28;47141;-81
2022/09/12 06:38:04;;;;;;;;;16.75;15.50;;;;;17.65;65.51;101038.06;5000179;28;46062;-82
2022/09/12 06:40:30;;;;;;;;;17.25;15.50;;;;;17.69;65.49;101041.50;5001832;28;45413;-81
2022/09/12 06:42:56;;;;;;;;;18.50;18.25;;;;;17.74;65.04;101043.09;5001582;28;45563;-81
2022/09/12 06:45:22;;;;;;;;;20.00;18.75;;;;;17.70;65.14;101032.59;5001507;28;46295;-81
2022/09/12 06:47:47;;;;;;;;;19.25;19.25;;;;;17.76;65.15;101043.06;5014600;28;45413;-81
2022/09/12 06:50:13;;;;;;;;;18.75;18.75;;;;;17.79;64.87;101045.69;5021404;28;45220;-82
2022/09/12 06:52:38;;;;;;;;;19.25;19.25;;;;;17.88;65.06;101048.06;5021309;28;45278;-82
2022/09/12 06:55:04;;;;;;;;;17.75;17.75;;;;;17.87;65.17;101038.34;5019875;28;46158;-81
2022/09/12 06:57:31;;;;;;;;;19.50;18.25;;;;;17.92;65.02;101044.41;5020978;28;45201;-82
2022/09/12 06:59:57;;;;;;;;;18.25;18.25;;;;;17.88;64.92;101032.06;5021405;28;45242;-81
2022/09/12 07:02:24;;;;;;;;;16.50;16.50;;;;;17.94;65.11;101033.72;5021132;28;45446;-81
2022/09/12 07:04:50;;;;;;;;;18.25;16.75;;;;;17.98;64.71;101038.88;5021045;28;46195;-82
2022/09/12 07:07:16;;;;;;;;;17.00;16.75;;;;;17.99;65.27;101034.41;5019630;28;45510;-82
2022/09/12 07:09:41;;;;;;;;;18.00;18.00;;;;;18.04;64.77;101044.06;5020987;28;45418;-82
2022/09/12 07:12:07;;;;;;;;;19.00;17.00;;;;;18.07;65.02;101025.31;5019683;28;45598;-82
2022/09/12 07:14:33;;;;;;;;;20.50;18.50;;;;;18.14;64.62;101035.75;5020239;28;45282;-81
2022/09/12 07:16:58;;;;;;;;;23.00;21.00;;;;;18.26;64.78;101040.75;5019122;28;45474;-82
2022/09/12 07:19:23;;;;;;;;;23.25;20.50;;;;;18.22;64.63;101025.75;5021002;28;45220;-81
2022/09/12 07:21:49;;;;;;;;;17.00;15.50;;;;;18.26;64.64;101025.59;5008399;28;45268;-81
2022/09/12 07:24:14;;;;;;;;;16.75;15.75;;;;;18.32;64.87;101032.53;5000906;28;46232;-82
2022/09/12 07:26:40;;;;;;;;;20.25;19.25;;;;;18.43;64.75;101040.19;4999562;28;45979;-81
2022/09/12 07:29:11;;;;;;;;;21.75;18.00;;;;;18.48;64.18;101041.78;5000634;28;45289;-82
2022/09/12 07:31:36;;;;;;;;;21.00;19.25;;;;;18.55;64.39;101037.16;5000523;28;45384;-82
2022/09/12 07:34:05;;;;;;;;;21.75;18.75;;;;;18.64;63.94;101038.66;4999187;28;47922;-81
2022/09/12 07:36:30;;;;;;;;;19.25;18.00;;;;;18.66;64.08;101032.34;4999211;28;45253;-81
2022/09/12 07:38:57;;;;;;;;;20.75;20.00;;;;;18.70;63.88;101033.97;5000688;28;45451;-82
2022/09/12 07:41:25;;;;;;;;;18.50;18.00;;;;;18.81;63.97;101032.78;4999169;28;45495;-81
2022/09/12 07:43:53;;;;;;;;;24.50;23.00;;;;;18.87;63.49;101027.22;5000131;28;45645;-81
2022/09/12 07:46:18;;;;;;;;;19.75;17.75;;;;;18.90;63.33;101024.47;4999342;28;45450;-81
2022/09/12 07:48:48;;;;;;;;;22.00;19.75;;;;;18.98;63.01;101027.75;5020564;28;45431;-81
2022/09/12 07:51:14;;;;;;;;;15.50;15.00;;;;;19.08;63.45;101036.31;5020298;28;45312;-81
2022/09/12 07:53:42;;;;;;;;;24.75;21.25;;;;;19.13;62.74;101037.03;5018815;28;45753;-81
2022/09/12 07:56:11;;;;;;;;;22.25;22.25;;;;;19.22;62.94;101043.84;5030309;28;45266;-82
2022/09/12 07:58:39;;;;;;;;;19.50;17.50;;;;;19.31;62.99;101038.19;5018270;28;45457;-82
2022/09/12 08:01:11;;;;;;;;;22.75;22.00;;;;;19.44;62.52;101054.66;5004402;28;45371;-82
2022/09/12 08:03:38;;;;;;;;;19.00;19.00;;;;;19.52;62.61;101034.75;4999832;28;46458;-82
2022/09/12 08:06:03;;;;;;;;;24.00;20.25;;;;;19.64;62.37;101033.41;5000139;28;45448;-81
2022/09/12 08:08:29;;;;;;;;;23.75;21.75;;;;;19.72;62.18;101038.50;5001273;28;45347;-82
2022/09/12 08:10:59;;;;;;;;;17.75;17.75;;;;;19.82;61.99;101038.13;4999140;28;45517;-81
2022/09/12 08:13:27;;;;;;;;;19.25;18.00;;;;;19.89;61.39;101024.50;5003026;28;46169;-81
2022/09/12 08:15:58;;;;;;;;;25.00;20.50;;;;;20.01;61.76;101026.72;4999574;28;45309;-81
2022/09/12 08:18:24;;;;;;;;;21.25;20.75;;;;;20.12;61.55;101029.00;5013981;28;45257;-81
2022/09/12 08:20:56;;;;;;;;;18.75;18.25;;;;;20.23;61.16;101034.78;5021164;28;45821;-82
2022/09/12 08:23:22;;;;;;;;;19.00;16.75;;;;;20.32;60.59;101031.75;5007972;28;47039;-81
2022/09/12 08:25:48;;;;;;;;;20.75;19.00;;;;;20.45;60.38;101040.19;4998696;28;45305;-81
2022/09/12 08:28:14;;;;;;;;;22.00;19.25;;;;;20.54;59.94;101028.25;4999843;28;45270;-81
2022/09/12 08:30:39;;;;;;;;;20.00;19.00;;;;;20.62;60.04;101031.50;4998672;28;45774;-80
2022/09/12 08:33:06;;;;;;;;;19.75;18.00;;;;;20.68;59.68;101028.56;4998600;28;47241;-80
2022/09/12 08:35:35;;;;;;;;;20.50;18.75;;;;;20.73;59.14;101025.69;5008312;28;45566;-80
2022/09/12 08:38:00;;;;;;;;;20.25;18.25;;;;;20.81;59.23;101027.13;5022115;28;45392;-81
2022/09/12 08:40:26;;;;;;;;;23.00;21.25;;;;;20.84;59.32;101023.44;5020945;28;45602;-80
2022/09/12 08:43:06;;;;;;;;;16.25;16.00;;;;;20.86;59.17;101017.09;5023875;28;45450;-81
2022/09/12 08:45:43;;;;;;;;;18.00;16.25;;;;;20.95;58.77;101022.97;5023426;28;45226;-81
2022/09/12 08:48:11;;;;;;;;;19.75;16.75;;;;;21.05;58.78;101021.66;5021253;28;45433;-80
2022/09/12 08:50:37;;;;;;;;;24.75;20.50;;;;;21.13;58.69;101020.38;5020718;28;45566;-81
2022/09/12 08:53:13;;;;;;;;;19.50;18.00;;;;;21.22;58.32;101020.94;5021537;28;46224;-81
2022/09/12 08:55:44;;;;;;;;;19.75;19.75;;;;;21.32;58.14;101025.81;5019254;28;45299;-81
2022/09/12 08:58:19;;;;;;;;;19.00;18.00;;;;;21.44;58.02;101026.22;5020750;28;45395;-80
2022/09/12 09:00:54;;;;;;;;;13.75;13.75;;;;;21.49;57.72;101021.53;5019497;28;45851;-81
2022/09/12 09:03:57;;;;;;;;;17.50;16.75;;;;;21.65;57.01;101029.75;5019635;28;46756;-81
2022/09/12 09:06:45;;;;;;;;;16.50;16.50;;;;;21.79;57.00;101019.31;5021808;28;45494;-81
2022/09/12 09:09:24;;;;;;;;;15.00;14.25;;;;;21.87;56.75;101008.22;5006147;28;45440;-81
2022/09/12 09:12:05;;;;;;;;;18.00;18.00;;;;;22.02;56.25;101010.16;5003222;28;45265;-80
2022/09/12 09:14:49;;;;;;;;;17.75;14.50;;;;;22.11;56.30;101011.56;5015833;28;45397;-81
2022/09/12 09:17:29;;;;;;;;;16.75;14.50;;;;;22.22;55.86;101006.59;5017739;28;45376;-81
2022/09/12 09:20:21;;;;;;;;;18.00;16.00;;;;;22.36;55.54;101000.56;5016838;28;45249;-81
2022/09/12 09:22:55;;;;;;;;;16.25;14.00;;;;;22.48;55.05;100997.28;5024030;28;45542;-81
2022/09/12 09:25:44;;;;;;;;;15.50;14.50;;;;;22.59;55.08;100997.59;5008558;28;47352;-81
2022/09/12 09:28:24;;;;;;;;;11.75;11.00;;;;;22.73;53.88;100999.59;5002375;28;45261;-81
2022/09/12 09:30:50;;;;;;;;;12.50;11.00;;;;;22.84;54.19;100993.69;5008026;28;45277;-82
2022/09/12 09:33:22;;;;;;;;;11.50;11.00;;;;;22.96;53.54;101000.22;5021108;28;45471;-81
2022/09/12 09:36:12;;;;;;;;;12.25;10.25;;;;;23.04;53.08;100987.31;5022816;28;47169;-81
2022/09/12 09:38:45;;;;;;;;;11.25;11.25;;;;;23.18;52.93;100992.00;5011861;28;45272;-81
2022/09/12 09:41:31;;;;;;;;;16.75;14.00;;;;;23.33;53.05;100981.31;5009383;28;45419;-82
2022/09/12 09:43:58;;;;;;;;;12.50;10.75;;;;;23.47;52.82;100985.03;5008580;28;45453;-81
2022/09/12 09:46:25;;;;;;;;;15.25;12.25;;;;;23.58;51.94;100979.97;5021783;28;46177;-81
2022/09/12 09:48:52;;;;;;;;;13.50;11.25;;;;;23.74;52.13;100990.78;5022336;28;45304;-82
2022/09/12 09:51:32;;;;;;;;;11.67;11.67;;;;;23.87;51.25;100978.41;5020942;28;45371;-82
2022/09/12 09:54:22;;;;;;;;;10.00;10.00;;;;;24.03;50.77;100982.91;5020381;28;45316;-82
2022/09/12 09:56:48;;;;;;;;;14.00;12.00;;;;;24.11;50.43;100977.97;5020383;28;46452;-82
2022/09/12 09:59:29;;;;;;;;;8.00;8.00;;;;;24.19;49.84;100971.22;5021911;28;45423;-81
2022/09/12 10:02:02;;;;;;;;;9.67;9.00;;;;;24.29;49.89;100966.16;5022254;28;45237;-82
2022/09/12 10:04:35;;;;;;;;;11.00;9.67;;;;;24.41;50.01;100968.16;5020772;28;45664;-81
2022/09/12 10:07:03;;;;;;;;;10.33;8.67;;;;;24.53;49.57;100961.22;5022490;28;45654;-82
2022/09/12 10:09:33;;;;;;;;;6.67;6.67;;;;;24.64;49.38;100956.09;5022581;28;45252;-81
2022/09/12 10:12:18;;;;;;;;;9.67;8.00;;;;;24.73;48.81;100954.66;5021105;28;45430;-82
2022/09/12 10:14:56;;;;;;;;;9.33;8.33;;;;;24.84;48.10;100945.94;5021767;28;45371;-82
2022/09/12 10:17:27;;;;;;;;;8.00;7.00;;;;;24.90;47.83;100950.94;5021051;28;45698;-81
2022/09/12 10:19:52;;;;;;;;;8.00;7.67;;;;;24.93;47.20;100948.06;5021669;28;45386;-82
2022/09/12 10:22:21;;;;;;;;;6.67;6.00;;;;;24.96;47.42;100949.69;5020063;28;45423;-82
2022/09/12 10:24:51;;;;;;;;;8.33;6.00;;;;;25.05;47.38;100949.16;5020530;28;45851;-82
2022/09/12 10:27:27;;;;;;;;;7.00;7.00;;;;;25.13;47.13;100946.88;5019565;28;46938;-82
2022/09/12 10:29:59;;;;;;;;;6.67;6.67;;;;;25.27;47.07;100940.66;5020160;28;45414;-82
2022/09/12 10:32:35;;;;;;;;;7.00;6.00;;;;;25.40;46.88;100936.22;5021373;28;45408;-82
2022/09/12 10:35:20;;;;;;;;;6.00;6.00;;;;;25.58;45.87;100947.69;5006519;28;45503;-82
2022/09/12 10:37:56;;;;;;;;;5.67;4.00;;;;;25.73;45.53;100944.00;5000014;28;47562;-82
2022/09/12 10:40:40;;;;;;;;;5.33;5.33;;;;;25.84;45.51;100945.16;5000286;28;45307;-82
2022/09/12 10:43:36;;;;;;;;;7.00;5.67;;;;;25.93;44.86;100945.44;5000511;28;45443;-82
2022/09/12 10:46:16;;;;;;;;;4.67;4.67;;;;;26.06;44.65;100944.63;4991460;28;45492;-82
2022/09/12 10:48:46;;;;;;;;;6.00;5.00;;;;;26.16;43.79;100938.53;5023610;28;46421;-82
2022/09/12 10:51:25;;;;;;;;;4.00;3.67;;;;;26.29;43.14;100938.59;5019437;28;45759;-82
2022/09/12 10:54:03;;;;;;;;;4.67;4.00;;;;;26.44;42.84;100942.13;5003540;28;45364;-82
2022/09/12 10:56:36;;;;;;;;;6.67;5.00;;;;;26.54;42.84;100939.66;5020931;28;45462;-82
2022/09/12 10:59:49;;;;;;;;;2.67;2.67;;;;;26.65;42.09;100929.03;5019640;28;47215;-82
2022/09/12 11:02:47;;;;;;;;;2.67;2.67;;;;;26.83;41.63;100929.56;5008988;28;45591;-82
2022/09/12 11:05:50;;;;;;;;;3.00;2.67;;;;;26.95;41.35;100919.78;5019791;28;45265;-80
2022/09/12 11:08:37;;;;;;;;;3.67;3.67;;;;;27.03;40.77;100914.69;5019961;28;45494;-82
2022/09/12 11:11:11;;;;;;;;;2.00;2.00;;;;;27.10;40.80;100924.09;5021787;28;46532;-81
2022/09/12 11:13:39;;;;;;;;;3.67;3.67;;;;;27.08;40.48;100931.47;5020708;28;45339;-81
2022/09/12 11:16:07;;;;;;;;;2.67;2.00;;;;;27.06;40.61;100928.84;5019601;28;45275;-82
2022/09/12 11:19:02;;;;;;;;;3.67;2.67;;;;;27.05;40.34;100946.06;5020268;28;45942;-83
2022/09/12 11:22:01;;;;;;;;;3.67;3.67;;;;;26.96;40.21;100938.56;5019325;28;47958;-80
2022/09/12 11:25:03;;;;;;;;;1.67;1.67;;;;;26.85;40.32;100935.75;5021201;28;45534;-81
2022/09/12 11:27:54;;;;;;;;;2.00;2.00;;;;;26.83;40.15;100916.06;5010273;28;45447;-81
2022/09/12 11:30:20;;;;;;;;;4.00;3.00;;;;;26.96;40.57;100918.78;5019228;28;45542;-82
2022/09/12 11:33:20;;;;;;;;;2.00;2.00;;;;;27.07;39.93;100918.91;5020845;28;45265;-81